sensor_id;sensor_type;location;lat;lon;timestamp;temperature;humidity
7129;DHT22;3606;52.930;8.644;2022-10-16T00:01:35;12.20;99.90
7129;DHT22;3606;52.930;8.644;2022-10-16T00:04:01;12.10;99.90
7129;DHT22;3606;52.930;8.644;2022-10-16T00:06:28;12.10;99.90
7129;DHT22;3606;52.930;8.644;2022-10-16T00:08:54;12.00;99.90
7129;DHT22;3606;52.930;8.644;2022-10-16T00:11:21;12.00;99.90
7129;DHT22;3606;52.930;8.644;2022-10-16T00:13:48;12.10;99.90
7129;DHT22;3606;52.930;8.644;2022-10-16T00:16:15;12.00;99.90
7129;DHT22;3606;52.930;8.644;2022-10-16T00:18:41;11.90;99.90
7129;DHT22;3606;52.930;8.644;2022-10-16T00:21:09;11.90;99.90
7129;DHT22;3606;52.930;8.644;2022-10-16T00:23:35;12.00;99.90
7129;DHT22;3606;52.930;8.644;2022-10-16T00:26:04;12.00;99.90
7129;DHT22;3606;52.930;8.644;2022-10-16T00:28:31;11.90;99.90
7129;DHT22;3606;52.930;8.644;2022-10-16T00:30:57;11.90;99.90
7129;DHT22;3606;52.930;8.644;2022-10-16T00:33:22;11.90;99.90
7129;DHT22;3606;52.930;8.644;2022-10-16T00:35:48;11.80;99.90
7129;DHT22;3606;52.930;8.644;2022-10-16T00:38:14;11.80;99.90
7129;DHT22;3606;52.930;8.644;2022-10-16T00:40:40;11.80;99.90
7129;DHT22;3606;52.930;8.644;2022-10-16T00:43:13;11.80;99.90
7129;DHT22;3606;52.930;8.644;2022-10-16T00:45:40;11.80;99.90
7129;DHT22;3606;52.930;8.644;2022-10-16T00:48:11;11.70;99.90
7129;DHT22;3606;52.930;8.644;2022-10-16T00:50:37;11.60;99.90
7129;DHT22;3606;52.930;8.644;2022-10-16T00:53:04;11.50;99.90
7129;DHT22;3606;52.930;8.644;2022-10-16T00:55:30;11.50;99.90
7129;DHT22;3606;52.930;8.644;2022-10-16T00:57:57;11.60;99.90
7129;DHT22;3606;52.930;8.644;2022-10-16T01:00:26;11.60;99.90
7129;DHT22;3606;52.930;8.644;2022-10-16T01:02:53;11.60;99.90
7129;DHT22;3606;52.930;8.644;2022-10-16T01:05:21;11.60;99.90
7129;DHT22;3606;52.930;8.644;2022-10-16T01:10:57;11.60;99.90
7129;DHT22;3606;52.930;8.644;2022-10-16T01:13:30;11.60;99.90
7129;DHT22;3606;52.930;8.644;2022-10-16T01:16:12;11.50;99.90
7129;DHT22;3606;52.930;8.644;2022-10-16T01:19:02;11.50;99.90
7129;DHT22;3606;52.930;8.644;2022-10-16T01:21:36;11.50;99.90
7129;DHT22;3606;52.930;8.644;2022-10-16T01:29:21;11.50;99.90
7129;DHT22;3606;52.930;8.644;2022-10-16T01:31:56;11.50;99.90
7129;DHT22;3606;52.930;8.644;2022-10-16T01:34:37;11.50;99.90
7129;DHT22;3606;52.930;8.644;2022-10-16T01:37:12;11.40;99.90
7129;DHT22;3606;52.930;8.644;2022-10-16T01:39:42;11.40;99.90
7129;DHT22;3606;52.930;8.644;2022-10-16T01:42:28;11.40;99.90
7129;DHT22;3606;52.930;8.644;2022-10-16T01:44:56;11.40;99.90
7129;DHT22;3606;52.930;8.644;2022-10-16T01:47:23;11.30;99.90
7129;DHT22;3606;52.930;8.644;2022-10-16T01:49:51;11.20;99.90
7129;DHT22;3606;52.930;8.644;2022-10-16T01:52:20;11.20;99.90
7129;DHT22;3606;52.930;8.644;2022-10-16T01:54:50;11.20;99.90
7129;DHT22;3606;52.930;8.644;2022-10-16T01:57:16;11.20;99.90
7129;DHT22;3606;52.930;8.644;2022-10-16T01:59:47;11.20;99.90
7129;DHT22;3606;52.930;8.644;2022-10-16T02:02:15;11.10;99.90
7129;DHT22;3606;52.930;8.644;2022-10-16T02:05:03;11.10;99.90
7129;DHT22;3606;52.930;8.644;2022-10-16T02:07:30;11.10;99.90
7129;DHT22;3606;52.930;8.644;2022-10-16T02:09:55;11.10;99.90
7129;DHT22;3606;52.930;8.644;2022-10-16T02:12:30;11.10;99.90
7129;DHT22;3606;52.930;8.644;2022-10-16T02:14:57;11.10;99.90
7129;DHT22;3606;52.930;8.644;2022-10-16T02:17:23;11.10;99.90
7129;DHT22;3606;52.930;8.644;2022-10-16T02:19:50;11.10;99.90
7129;DHT22;3606;52.930;8.644;2022-10-16T02:22:34;11.20;99.90
7129;DHT22;3606;52.930;8.644;2022-10-16T02:25:27;11.10;99.90
7129;DHT22;3606;52.930;8.644;2022-10-16T02:30:32;11.00;99.90
7129;DHT22;3606;52.930;8.644;2022-10-16T02:33:00;10.90;99.90
7129;DHT22;3606;52.930;8.644;2022-10-16T02:35:28;11.00;99.90
7129;DHT22;3606;52.930;8.644;2022-10-16T02:37:55;11.00;99.90
7129;DHT22;3606;52.930;8.644;2022-10-16T02:40:22;11.00;99.90
7129;DHT22;3606;52.930;8.644;2022-10-16T02:42:51;11.00;99.90
7129;DHT22;3606;52.930;8.644;2022-10-16T02:45:18;11.10;99.90
7129;DHT22;3606;52.930;8.644;2022-10-16T02:47:43;11.10;99.90
7129;DHT22;3606;52.930;8.644;2022-10-16T02:50:09;11.10;99.90
7129;DHT22;3606;52.930;8.644;2022-10-16T02:52:35;11.10;99.90
7129;DHT22;3606;52.930;8.644;2022-10-16T02:55:00;11.10;99.90
7129;DHT22;3606;52.930;8.644;2022-10-16T02:57:26;11.10;99.90
7129;DHT22;3606;52.930;8.644;2022-10-16T02:59:52;11.10;99.90
7129;DHT22;3606;52.930;8.644;2022-10-16T03:02:18;11.20;99.90
7129;DHT22;3606;52.930;8.644;2022-10-16T03:04:43;11.20;99.90
7129;DHT22;3606;52.930;8.644;2022-10-16T03:07:09;11.20;99.90
7129;DHT22;3606;52.930;8.644;2022-10-16T03:09:35;11.30;99.90
7129;DHT22;3606;52.930;8.644;2022-10-16T03:12:00;11.30;99.90
7129;DHT22;3606;52.930;8.644;2022-10-16T03:14:26;11.30;99.90
7129;DHT22;3606;52.930;8.644;2022-10-16T03:16:52;11.30;99.90
7129;DHT22;3606;52.930;8.644;2022-10-16T03:19:17;11.30;99.90
7129;DHT22;3606;52.930;8.644;2022-10-16T03:21:43;11.30;99.90
7129;DHT22;3606;52.930;8.644;2022-10-16T03:24:09;11.40;99.90
7129;DHT22;3606;52.930;8.644;2022-10-16T03:26:35;11.40;99.90
7129;DHT22;3606;52.930;8.644;2022-10-16T03:29:00;11.40;99.90
7129;DHT22;3606;52.930;8.644;2022-10-16T03:31:29;11.40;99.90
7129;DHT22;3606;52.930;8.644;2022-10-16T03:33:54;11.40;99.90
7129;DHT22;3606;52.930;8.644;2022-10-16T03:36:20;11.40;99.90
7129;DHT22;3606;52.930;8.644;2022-10-16T03:38:46;11.40;99.90
7129;DHT22;3606;52.930;8.644;2022-10-16T03:41:11;11.40;99.90
7129;DHT22;3606;52.930;8.644;2022-10-16T03:43:37;11.40;99.90
7129;DHT22;3606;52.930;8.644;2022-10-16T03:46:02;11.40;99.90
7129;DHT22;3606;52.930;8.644;2022-10-16T03:48:28;11.40;99.90
7129;DHT22;3606;52.930;8.644;2022-10-16T03:50:54;11.40;99.90
7129;DHT22;3606;52.930;8.644;2022-10-16T03:53:20;11.30;99.90
7129;DHT22;3606;52.930;8.644;2022-10-16T03:55:45;11.40;99.90
7129;DHT22;3606;52.930;8.644;2022-10-16T03:58:11;11.40;99.90
7129;DHT22;3606;52.930;8.644;2022-10-16T04:00:41;11.40;99.90
7129;DHT22;3606;52.930;8.644;2022-10-16T04:03:07;11.50;99.90
7129;DHT22;3606;52.930;8.644;2022-10-16T04:05:33;11.40;99.90
7129;DHT22;3606;52.930;8.644;2022-10-16T04:07:59;11.40;99.90
7129;DHT22;3606;52.930;8.644;2022-10-16T04:10:24;11.40;99.90
7129;DHT22;3606;52.930;8.644;2022-10-16T04:12:50;11.40;99.90
7129;DHT22;3606;52.930;8.644;2022-10-16T04:15:15;11.50;99.90
7129;DHT22;3606;52.930;8.644;2022-10-16T04:17:41;11.50;99.90
7129;DHT22;3606;52.930;8.644;2022-10-16T04:20:07;11.30;99.90
7129;DHT22;3606;52.930;8.644;2022-10-16T04:22:33;11.30;99.90
7129;DHT22;3606;52.930;8.644;2022-10-16T04:24:58;11.30;99.90
7129;DHT22;3606;52.930;8.644;2022-10-16T04:27:24;11.30;99.90
7129;DHT22;3606;52.930;8.644;2022-10-16T04:29:49;11.40;99.90
7129;DHT22;3606;52.930;8.644;2022-10-16T04:32:15;11.40;99.90
7129;DHT22;3606;52.930;8.644;2022-10-16T04:34:41;11.30;99.90
7129;DHT22;3606;52.930;8.644;2022-10-16T04:37:06;11.30;99.90
7129;DHT22;3606;52.930;8.644;2022-10-16T04:39:32;11.30;99.90
7129;DHT22;3606;52.930;8.644;2022-10-16T04:41:58;11.40;99.90
7129;DHT22;3606;52.930;8.644;2022-10-16T04:44:23;11.40;99.90
7129;DHT22;3606;52.930;8.644;2022-10-16T04:46:52;11.40;99.90
7129;DHT22;3606;52.930;8.644;2022-10-16T04:49:17;11.50;99.90
7129;DHT22;3606;52.930;8.644;2022-10-16T04:51:43;11.40;99.90
7129;DHT22;3606;52.930;8.644;2022-10-16T04:54:09;11.40;99.90
7129;DHT22;3606;52.930;8.644;2022-10-16T04:56:35;11.40;99.90
7129;DHT22;3606;52.930;8.644;2022-10-16T04:59:08;11.40;99.90
7129;DHT22;3606;52.930;8.644;2022-10-16T05:01:34;11.40;99.90
7129;DHT22;3606;52.930;8.644;2022-10-16T05:03:59;11.40;99.90
7129;DHT22;3606;52.930;8.644;2022-10-16T05:06:25;11.40;99.90
7129;DHT22;3606;52.930;8.644;2022-10-16T05:08:51;11.50;99.90
7129;DHT22;3606;52.930;8.644;2022-10-16T05:11:16;11.50;99.90
7129;DHT22;3606;52.930;8.644;2022-10-16T05:13:42;11.50;99.90
7129;DHT22;3606;52.930;8.644;2022-10-16T05:16:08;11.60;99.90
7129;DHT22;3606;52.930;8.644;2022-10-16T05:18:33;11.70;99.90
7129;DHT22;3606;52.930;8.644;2022-10-16T05:20:59;11.70;99.90
7129;DHT22;3606;52.930;8.644;2022-10-16T05:23:24;11.70;99.90
7129;DHT22;3606;52.930;8.644;2022-10-16T05:25:54;11.70;99.90
7129;DHT22;3606;52.930;8.644;2022-10-16T05:28:24;11.80;99.90
7129;DHT22;3606;52.930;8.644;2022-10-16T05:30:50;11.80;99.90
7129;DHT22;3606;52.930;8.644;2022-10-16T05:33:16;11.90;99.90
7129;DHT22;3606;52.930;8.644;2022-10-16T05:35:42;11.90;99.90
7129;DHT22;3606;52.930;8.644;2022-10-16T05:38:07;11.90;99.90
7129;DHT22;3606;52.930;8.644;2022-10-16T05:40:33;11.90;99.90
7129;DHT22;3606;52.930;8.644;2022-10-16T05:42:59;11.90;99.90
7129;DHT22;3606;52.930;8.644;2022-10-16T05:45:24;12.00;99.90
7129;DHT22;3606;52.930;8.644;2022-10-16T05:47:50;11.90;99.90
7129;DHT22;3606;52.930;8.644;2022-10-16T05:50:16;12.00;99.90
7129;DHT22;3606;52.930;8.644;2022-10-16T05:52:42;12.00;99.90
7129;DHT22;3606;52.930;8.644;2022-10-16T05:55:08;11.90;99.90
7129;DHT22;3606;52.930;8.644;2022-10-16T05:57:33;11.90;99.90
7129;DHT22;3606;52.930;8.644;2022-10-16T05:59:59;11.90;99.90
7129;DHT22;3606;52.930;8.644;2022-10-16T06:02:24;12.00;99.90
7129;DHT22;3606;52.930;8.644;2022-10-16T06:04:51;12.00;99.90
7129;DHT22;3606;52.930;8.644;2022-10-16T06:07:19;12.00;99.90
7129;DHT22;3606;52.930;8.644;2022-10-16T06:09:48;12.00;99.90
7129;DHT22;3606;52.930;8.644;2022-10-16T06:12:14;12.00;99.90
7129;DHT22;3606;52.930;8.644;2022-10-16T06:14:40;12.00;99.90
7129;DHT22;3606;52.930;8.644;2022-10-16T06:17:06;12.00;99.90
7129;DHT22;3606;52.930;8.644;2022-10-16T06:19:31;12.10;99.90
7129;DHT22;3606;52.930;8.644;2022-10-16T06:21:57;12.10;99.90
7129;DHT22;3606;52.930;8.644;2022-10-16T06:24:24;12.10;99.90
7129;DHT22;3606;52.930;8.644;2022-10-16T06:26:50;12.10;99.90
7129;DHT22;3606;52.930;8.644;2022-10-16T06:29:15;12.30;99.90
7129;DHT22;3606;52.930;8.644;2022-10-16T06:31:41;12.30;99.90
7129;DHT22;3606;52.930;8.644;2022-10-16T06:34:09;12.30;99.90
7129;DHT22;3606;52.930;8.644;2022-10-16T06:36:36;12.30;99.90
7129;DHT22;3606;52.930;8.644;2022-10-16T06:39:02;12.40;99.90
7129;DHT22;3606;52.930;8.644;2022-10-16T06:41:28;12.40;99.90
7129;DHT22;3606;52.930;8.644;2022-10-16T06:43:54;12.40;99.90
7129;DHT22;3606;52.930;8.644;2022-10-16T06:46:22;12.40;99.90
7129;DHT22;3606;52.930;8.644;2022-10-16T06:48:48;12.50;99.90
7129;DHT22;3606;52.930;8.644;2022-10-16T06:51:19;12.50;99.90
7129;DHT22;3606;52.930;8.644;2022-10-16T06:53:50;12.60;99.90
7129;DHT22;3606;52.930;8.644;2022-10-16T06:56:24;12.70;99.90
7129;DHT22;3606;52.930;8.644;2022-10-16T06:58:51;12.80;99.90
7129;DHT22;3606;52.930;8.644;2022-10-16T07:01:18;12.80;99.90
7129;DHT22;3606;52.930;8.644;2022-10-16T07:03:44;12.90;99.90
7129;DHT22;3606;52.930;8.644;2022-10-16T07:06:12;13.00;99.90
7129;DHT22;3606;52.930;8.644;2022-10-16T07:08:40;13.20;99.90
7129;DHT22;3606;52.930;8.644;2022-10-16T07:11:08;13.80;99.90
7129;DHT22;3606;52.930;8.644;2022-10-16T07:13:35;14.10;99.90
7129;DHT22;3606;52.930;8.644;2022-10-16T07:16:15;14.60;99.90
7129;DHT22;3606;52.930;8.644;2022-10-16T07:18:42;15.10;1.00
7129;DHT22;3606;52.930;8.644;2022-10-16T07:21:19;15.30;1.00
7129;DHT22;3606;52.930;8.644;2022-10-16T07:23:49;15.60;1.00
7129;DHT22;3606;52.930;8.644;2022-10-16T07:26:15;16.00;99.90
7129;DHT22;3606;52.930;8.644;2022-10-16T07:28:42;16.30;99.90
7129;DHT22;3606;52.930;8.644;2022-10-16T07:31:11;16.80;52.10
7129;DHT22;3606;52.930;8.644;2022-10-16T07:33:39;17.40;1.00
7129;DHT22;3606;52.930;8.644;2022-10-16T07:36:06;18.20;99.90
7129;DHT22;3606;52.930;8.644;2022-10-16T07:38:31;18.30;99.90
7129;DHT22;3606;52.930;8.644;2022-10-16T07:40:59;18.50;9.90
7129;DHT22;3606;52.930;8.644;2022-10-16T07:43:26;18.80;1.00
7129;DHT22;3606;52.930;8.644;2022-10-16T07:45:51;18.60;1.00
7129;DHT22;3606;52.930;8.644;2022-10-16T07:48:18;17.80;99.90
7129;DHT22;3606;52.930;8.644;2022-10-16T07:50:44;16.70;1.00
7129;DHT22;3606;52.930;8.644;2022-10-16T07:53:10;16.00;1.00
7129;DHT22;3606;52.930;8.644;2022-10-16T07:55:36;15.70;1.00
7129;DHT22;3606;52.930;8.644;2022-10-16T07:58:02;15.70;99.90
7129;DHT22;3606;52.930;8.644;2022-10-16T08:00:27;15.70;1.00
7129;DHT22;3606;52.930;8.644;2022-10-16T08:02:53;15.60;1.00
7129;DHT22;3606;52.930;8.644;2022-10-16T08:05:19;15.50;12.80
7129;DHT22;3606;52.930;8.644;2022-10-16T08:07:51;15.60;1.00
7129;DHT22;3606;52.930;8.644;2022-10-16T08:10:17;15.60;1.00
7129;DHT22;3606;52.930;8.644;2022-10-16T08:12:43;15.50;99.90
7129;DHT22;3606;52.930;8.644;2022-10-16T08:15:09;15.20;99.90
7129;DHT22;3606;52.930;8.644;2022-10-16T08:17:35;15.10;99.90
7129;DHT22;3606;52.930;8.644;2022-10-16T08:20:01;15.20;1.00
7129;DHT22;3606;52.930;8.644;2022-10-16T08:22:27;15.30;99.90
7129;DHT22;3606;52.930;8.644;2022-10-16T08:24:53;15.40;1.00
7129;DHT22;3606;52.930;8.644;2022-10-16T08:27:18;15.50;1.00
7129;DHT22;3606;52.930;8.644;2022-10-16T08:29:44;15.40;99.90
7129;DHT22;3606;52.930;8.644;2022-10-16T08:32:09;15.50;35.70
7129;DHT22;3606;52.930;8.644;2022-10-16T08:34:35;16.70;99.90
7129;DHT22;3606;52.930;8.644;2022-10-16T08:37:01;17.30;1.00
7129;DHT22;3606;52.930;8.644;2022-10-16T08:39:27;17.20;1.00
7129;DHT22;3606;52.930;8.644;2022-10-16T08:42:23;17.00;1.00
7129;DHT22;3606;52.930;8.644;2022-10-16T08:47:48;17.00;1.00
7129;DHT22;3606;52.930;8.644;2022-10-16T08:50:27;16.90;1.00
7129;DHT22;3606;52.930;8.644;2022-10-16T08:52:53;18.20;62.20
7129;DHT22;3606;52.930;8.644;2022-10-16T08:57:51;20.60;99.90
7129;DHT22;3606;52.930;8.644;2022-10-16T09:00:17;21.10;7.80
7129;DHT22;3606;52.930;8.644;2022-10-16T09:03:17;21.40;1.00
7129;DHT22;3606;52.930;8.644;2022-10-16T09:11:04;21.40;1.00
7129;DHT22;3606;52.930;8.644;2022-10-16T09:14:04;21.10;1.00
7129;DHT22;3606;52.930;8.644;2022-10-16T09:16:53;21.90;1.00
7129;DHT22;3606;52.930;8.644;2022-10-16T09:19:37;22.40;99.90
7129;DHT22;3606;52.930;8.644;2022-10-16T09:22:14;21.90;99.90
7129;DHT22;3606;52.930;8.644;2022-10-16T09:24:40;21.70;99.90
7129;DHT22;3606;52.930;8.644;2022-10-16T09:27:10;21.70;99.90
7129;DHT22;3606;52.930;8.644;2022-10-16T09:29:36;22.20;99.90
7129;DHT22;3606;52.930;8.644;2022-10-16T09:32:18;22.80;99.90
7129;DHT22;3606;52.930;8.644;2022-10-16T09:34:50;22.50;99.90
7129;DHT22;3606;52.930;8.644;2022-10-16T09:37:19;21.80;99.90
7129;DHT22;3606;52.930;8.644;2022-10-16T09:39:50;20.30;1.00
7129;DHT22;3606;52.930;8.644;2022-10-16T09:42:34;19.00;99.90
7129;DHT22;3606;52.930;8.644;2022-10-16T09:45:01;18.40;99.90
7129;DHT22;3606;52.930;8.644;2022-10-16T09:47:29;18.40;1.00
7129;DHT22;3606;52.930;8.644;2022-10-16T09:52:23;18.90;99.90
7129;DHT22;3606;52.930;8.644;2022-10-16T09:57:18;19.50;99.90
7129;DHT22;3606;52.930;8.644;2022-10-16T10:02:19;21.40;1.00
7129;DHT22;3606;52.930;8.644;2022-10-16T10:04:53;21.90;99.90
7129;DHT22;3606;52.930;8.644;2022-10-16T10:07:35;22.20;99.90
7129;DHT22;3606;52.930;8.644;2022-10-16T10:10:04;21.90;99.90
7129;DHT22;3606;52.930;8.644;2022-10-16T10:12:31;22.00;99.90
7129;DHT22;3606;52.930;8.644;2022-10-16T10:15:04;22.10;99.90
7129;DHT22;3606;52.930;8.644;2022-10-16T10:17:31;22.90;99.90
7129;DHT22;3606;52.930;8.644;2022-10-16T10:19:59;23.90;99.90
7129;DHT22;3606;52.930;8.644;2022-10-16T10:33:43;20.20;1.00
7129;DHT22;3606;52.930;8.644;2022-10-16T10:36:28;21.60;99.90
7129;DHT22;3606;52.930;8.644;2022-10-16T10:39:20;22.20;99.90
7129;DHT22;3606;52.930;8.644;2022-10-16T10:42:20;21.80;99.90
7129;DHT22;3606;52.930;8.644;2022-10-16T10:50:56;22.00;99.90
7129;DHT22;3606;52.930;8.644;2022-10-16T11:06:51;21.50;99.90
7129;DHT22;3606;52.930;8.644;2022-10-16T11:10:07;22.10;99.90
7129;DHT22;3606;52.930;8.644;2022-10-16T11:12:41;22.00;99.90
7129;DHT22;3606;52.930;8.644;2022-10-16T11:15:27;21.80;99.90
7129;DHT22;3606;52.930;8.644;2022-10-16T11:25:35;21.90;99.90
7129;DHT22;3606;52.930;8.644;2022-10-16T11:28:29;21.60;99.90
7129;DHT22;3606;52.930;8.644;2022-10-16T11:30:59;21.40;99.90
7129;DHT22;3606;52.930;8.644;2022-10-16T11:33:41;21.60;99.90
7129;DHT22;3606;52.930;8.644;2022-10-16T11:36:25;21.40;99.90
7129;DHT22;3606;52.930;8.644;2022-10-16T11:39:24;21.60;99.90
7129;DHT22;3606;52.930;8.644;2022-10-16T11:42:29;21.50;99.90
7129;DHT22;3606;52.930;8.644;2022-10-16T11:45:21;21.70;99.90
7129;DHT22;3606;52.930;8.644;2022-10-16T11:48:00;21.80;99.90
7129;DHT22;3606;52.930;8.644;2022-10-16T11:55:40;21.40;99.90
7129;DHT22;3606;52.930;8.644;2022-10-16T12:03:22;21.30;99.90
7129;DHT22;3606;52.930;8.644;2022-10-16T12:08:34;21.60;99.90
7129;DHT22;3606;52.930;8.644;2022-10-16T12:16:57;21.90;71.90
7129;DHT22;3606;52.930;8.644;2022-10-16T12:19:26;21.70;97.30
7129;DHT22;3606;52.930;8.644;2022-10-16T12:21:55;21.80;46.40
7129;DHT22;3606;52.930;8.644;2022-10-16T12:26:58;21.10;33.10
7129;DHT22;3606;52.930;8.644;2022-10-16T12:29:33;20.70;44.70
7129;DHT22;3606;52.930;8.644;2022-10-16T12:32:00;20.40;54.00
7129;DHT22;3606;52.930;8.644;2022-10-16T12:34:50;20.80;73.10
7129;DHT22;3606;52.930;8.644;2022-10-16T12:37:21;20.90;48.80
7129;DHT22;3606;52.930;8.644;2022-10-16T12:39:49;21.50;29.40
7129;DHT22;3606;52.930;8.644;2022-10-16T12:44:52;22.00;1.00
7129;DHT22;3606;52.930;8.644;2022-10-16T12:47:47;22.00;1.00
7129;DHT22;3606;52.930;8.644;2022-10-16T12:50:34;21.90;1.00
7129;DHT22;3606;52.930;8.644;2022-10-16T12:53:02;21.90;1.00
7129;DHT22;3606;52.930;8.644;2022-10-16T12:55:35;21.90;1.00
7129;DHT22;3606;52.930;8.644;2022-10-16T13:00:55;21.70;1.00
7129;DHT22;3606;52.930;8.644;2022-10-16T13:14:32;21.40;1.00
7129;DHT22;3606;52.930;8.644;2022-10-16T13:20:10;22.00;1.00
7129;DHT22;3606;52.930;8.644;2022-10-16T13:28:31;21.70;1.00
7129;DHT22;3606;52.930;8.644;2022-10-16T13:30:58;21.60;1.00
7129;DHT22;3606;52.930;8.644;2022-10-16T13:33:37;21.70;1.00
7129;DHT22;3606;52.930;8.644;2022-10-16T13:36:04;21.60;1.00
7129;DHT22;3606;52.930;8.644;2022-10-16T13:38:32;21.90;1.00
7129;DHT22;3606;52.930;8.644;2022-10-16T13:41:04;22.40;1.00
7129;DHT22;3606;52.930;8.644;2022-10-16T13:46:10;22.60;1.00
7129;DHT22;3606;52.930;8.644;2022-10-16T13:48:37;22.90;1.00
7129;DHT22;3606;52.930;8.644;2022-10-16T13:53:34;23.10;1.00
7129;DHT22;3606;52.930;8.644;2022-10-16T13:56:01;22.50;1.00
7129;DHT22;3606;52.930;8.644;2022-10-16T13:58:27;21.80;1.00
7129;DHT22;3606;52.930;8.644;2022-10-16T14:03:20;21.90;1.00
7129;DHT22;3606;52.930;8.644;2022-10-16T14:05:49;22.00;1.00
7129;DHT22;3606;52.930;8.644;2022-10-16T14:08:15;22.10;1.00
7129;DHT22;3606;52.930;8.644;2022-10-16T14:10:41;21.50;1.00
7129;DHT22;3606;52.930;8.644;2022-10-16T14:13:12;20.60;1.00
7129;DHT22;3606;52.930;8.644;2022-10-16T14:15:40;19.90;1.00
7129;DHT22;3606;52.930;8.644;2022-10-16T14:18:05;19.40;1.00
7129;DHT22;3606;52.930;8.644;2022-10-16T14:20:33;19.00;1.00
7129;DHT22;3606;52.930;8.644;2022-10-16T14:25:45;18.40;71.70
7129;DHT22;3606;52.930;8.644;2022-10-16T14:28:23;18.20;99.90
7129;DHT22;3606;52.930;8.644;2022-10-16T14:30:59;18.10;99.90
7129;DHT22;3606;52.930;8.644;2022-10-16T14:33:32;18.10;99.90
7129;DHT22;3606;52.930;8.644;2022-10-16T14:36:11;18.30;99.90
7129;DHT22;3606;52.930;8.644;2022-10-16T14:38:39;19.20;88.30
7129;DHT22;3606;52.930;8.644;2022-10-16T14:41:05;20.40;2.60
7129;DHT22;3606;52.930;8.644;2022-10-16T14:43:33;21.20;1.00
7129;DHT22;3606;52.930;8.644;2022-10-16T14:46:02;21.80;1.00
7129;DHT22;3606;52.930;8.644;2022-10-16T14:48:29;22.30;1.00
7129;DHT22;3606;52.930;8.644;2022-10-16T14:50:55;22.40;1.00
7129;DHT22;3606;52.930;8.644;2022-10-16T14:53:21;22.40;1.00
7129;DHT22;3606;52.930;8.644;2022-10-16T14:55:46;22.70;1.00
7129;DHT22;3606;52.930;8.644;2022-10-16T14:58:19;23.00;1.00
7129;DHT22;3606;52.930;8.644;2022-10-16T15:00:46;22.40;1.00
7129;DHT22;3606;52.930;8.644;2022-10-16T15:03:11;22.50;1.00
7129;DHT22;3606;52.930;8.644;2022-10-16T15:05:37;21.90;1.00
7129;DHT22;3606;52.930;8.644;2022-10-16T15:08:03;21.70;1.00
7129;DHT22;3606;52.930;8.644;2022-10-16T15:10:30;20.60;1.00
7129;DHT22;3606;52.930;8.644;2022-10-16T15:12:57;19.60;1.00
7129;DHT22;3606;52.930;8.644;2022-10-16T15:17:53;18.20;99.90
7129;DHT22;3606;52.930;8.644;2022-10-16T15:20:21;17.80;99.90
7129;DHT22;3606;52.930;8.644;2022-10-16T15:22:47;17.50;99.90
7129;DHT22;3606;52.930;8.644;2022-10-16T15:25:38;17.30;1.00
7129;DHT22;3606;52.930;8.644;2022-10-16T15:28:05;17.10;1.00
7129;DHT22;3606;52.930;8.644;2022-10-16T15:30:31;16.90;1.00
7129;DHT22;3606;52.930;8.644;2022-10-16T15:32:57;16.70;1.00
7129;DHT22;3606;52.930;8.644;2022-10-16T15:35:22;16.50;1.00
7129;DHT22;3606;52.930;8.644;2022-10-16T15:37:48;16.40;1.60
7129;DHT22;3606;52.930;8.644;2022-10-16T15:40:16;16.30;61.00
7129;DHT22;3606;52.930;8.644;2022-10-16T15:42:42;16.10;99.90
7129;DHT22;3606;52.930;8.644;2022-10-16T15:45:09;15.90;99.90
7129;DHT22;3606;52.930;8.644;2022-10-16T15:47:35;15.90;99.90
7129;DHT22;3606;52.930;8.644;2022-10-16T15:50:00;15.80;99.90
7129;DHT22;3606;52.930;8.644;2022-10-16T15:52:26;15.70;99.90
7129;DHT22;3606;52.930;8.644;2022-10-16T15:54:54;15.60;1.00
7129;DHT22;3606;52.930;8.644;2022-10-16T15:57:19;15.40;1.00
7129;DHT22;3606;52.930;8.644;2022-10-16T15:59:45;15.40;1.00
7129;DHT22;3606;52.930;8.644;2022-10-16T16:02:10;15.20;1.00
7129;DHT22;3606;52.930;8.644;2022-10-16T16:04:36;15.10;1.00
7129;DHT22;3606;52.930;8.644;2022-10-16T16:07:02;15.00;55.40
7129;DHT22;3606;52.930;8.644;2022-10-16T16:09:31;14.80;99.90
7129;DHT22;3606;52.930;8.644;2022-10-16T16:11:56;14.60;99.90
7129;DHT22;3606;52.930;8.644;2022-10-16T16:14:25;14.60;1.00
7129;DHT22;3606;52.930;8.644;2022-10-16T16:16:53;14.40;99.90
7129;DHT22;3606;52.930;8.644;2022-10-16T16:19:19;14.20;1.00
7129;DHT22;3606;52.930;8.644;2022-10-16T16:21:46;14.00;99.90
7129;DHT22;3606;52.930;8.644;2022-10-16T16:24:12;13.90;99.90
7129;DHT22;3606;52.930;8.644;2022-10-16T16:26:38;13.70;1.00
7129;DHT22;3606;52.930;8.644;2022-10-16T16:29:12;13.80;1.00
7129;DHT22;3606;52.930;8.644;2022-10-16T16:31:39;13.70;1.00
7129;DHT22;3606;52.930;8.644;2022-10-16T16:34:05;13.60;1.00
7129;DHT22;3606;52.930;8.644;2022-10-16T16:36:31;13.30;1.00
7129;DHT22;3606;52.930;8.644;2022-10-16T16:38:56;13.20;99.90
7129;DHT22;3606;52.930;8.644;2022-10-16T16:41:24;13.00;1.00
7129;DHT22;3606;52.930;8.644;2022-10-16T16:43:51;12.70;1.00
7129;DHT22;3606;52.930;8.644;2022-10-16T16:46:17;12.40;99.90
7129;DHT22;3606;52.930;8.644;2022-10-16T16:48:44;12.20;1.00
7129;DHT22;3606;52.930;8.644;2022-10-16T16:51:14;12.00;99.90
7129;DHT22;3606;52.930;8.644;2022-10-16T16:53:46;11.80;99.90
7129;DHT22;3606;52.930;8.644;2022-10-16T16:56:12;11.70;1.00
7129;DHT22;3606;52.930;8.644;2022-10-16T16:58:38;11.60;1.00
7129;DHT22;3606;52.930;8.644;2022-10-16T17:01:04;11.40;1.00
7129;DHT22;3606;52.930;8.644;2022-10-16T17:03:31;11.30;1.00
7129;DHT22;3606;52.930;8.644;2022-10-16T17:06:03;11.20;1.00
7129;DHT22;3606;52.930;8.644;2022-10-16T17:08:30;11.20;1.00
7129;DHT22;3606;52.930;8.644;2022-10-16T17:10:56;11.00;1.00
7129;DHT22;3606;52.930;8.644;2022-10-16T17:13:27;10.90;1.00
7129;DHT22;3606;52.930;8.644;2022-10-16T17:15:53;10.90;1.00
7129;DHT22;3606;52.930;8.644;2022-10-16T17:18:19;10.80;1.00
7129;DHT22;3606;52.930;8.644;2022-10-16T17:20:46;10.80;99.90
7129;DHT22;3606;52.930;8.644;2022-10-16T17:23:13;10.90;99.90
7129;DHT22;3606;52.930;8.644;2022-10-16T17:25:40;11.00;99.90
7129;DHT22;3606;52.930;8.644;2022-10-16T17:28:06;11.00;99.90
7129;DHT22;3606;52.930;8.644;2022-10-16T17:30:33;10.90;99.90
7129;DHT22;3606;52.930;8.644;2022-10-16T17:33:00;10.80;99.90
7129;DHT22;3606;52.930;8.644;2022-10-16T17:35:26;10.80;99.90
7129;DHT22;3606;52.930;8.644;2022-10-16T17:37:52;10.70;99.90
7129;DHT22;3606;52.930;8.644;2022-10-16T17:40:18;10.70;99.90
7129;DHT22;3606;52.930;8.644;2022-10-16T17:42:43;10.80;99.90
7129;DHT22;3606;52.930;8.644;2022-10-16T17:45:09;10.80;99.90
7129;DHT22;3606;52.930;8.644;2022-10-16T17:47:34;10.70;99.90
7129;DHT22;3606;52.930;8.644;2022-10-16T17:50:01;10.60;99.90
7129;DHT22;3606;52.930;8.644;2022-10-16T17:52:27;10.60;99.90
7129;DHT22;3606;52.930;8.644;2022-10-16T17:54:53;10.50;99.90
7129;DHT22;3606;52.930;8.644;2022-10-16T17:57:18;10.60;99.90
7129;DHT22;3606;52.930;8.644;2022-10-16T17:59:44;10.50;99.90
7129;DHT22;3606;52.930;8.644;2022-10-16T18:02:10;10.40;99.90
7129;DHT22;3606;52.930;8.644;2022-10-16T18:04:36;10.30;99.90
7129;DHT22;3606;52.930;8.644;2022-10-16T18:07:01;10.40;99.90
7129;DHT22;3606;52.930;8.644;2022-10-16T18:09:27;10.40;99.90
7129;DHT22;3606;52.930;8.644;2022-10-16T18:11:53;10.30;99.90
7129;DHT22;3606;52.930;8.644;2022-10-16T18:14:26;10.30;99.90
7129;DHT22;3606;52.930;8.644;2022-10-16T18:16:51;10.20;99.90
7129;DHT22;3606;52.930;8.644;2022-10-16T18:19:18;10.20;99.90
7129;DHT22;3606;52.930;8.644;2022-10-16T18:21:44;10.30;99.90
7129;DHT22;3606;52.930;8.644;2022-10-16T18:24:10;10.30;99.90